createdAt,value
2018-07-19T00:00:01.681Z,18.37
2018-07-19T00:01:08.136Z,18.28
2018-07-19T00:02:11.689Z,18.19
2018-07-19T00:03:15.651Z,18.05
2018-07-19T00:04:20.847Z,17.88
2018-07-19T00:06:35.710Z,17.98
2018-07-19T00:07:39.914Z,18.05
2018-07-19T00:08:43.908Z,18.08
2018-07-19T00:09:46.975Z,18.05
2018-07-19T00:10:50.351Z,18.04
2018-07-19T00:11:53.386Z,18.17
2018-07-19T00:12:56.368Z,17.99
2018-07-19T00:13:59.929Z,17.80
2018-07-19T00:15:02.968Z,17.80
2018-07-19T00:16:05.843Z,17.97
2018-07-19T00:17:10.356Z,18.00
2018-07-19T00:18:13.301Z,17.96
2018-07-19T00:19:17.480Z,17.79
2018-07-19T00:20:21.440Z,17.79
2018-07-19T00:21:24.389Z,17.79
2018-07-19T00:22:27.334Z,17.83
2018-07-19T00:23:30.809Z,17.79
2018-07-19T00:24:34.266Z,17.68
2018-07-19T00:25:40.740Z,17.46
2018-07-19T00:26:44.363Z,17.43
2018-07-19T00:27:47.995Z,17.46
2018-07-19T00:28:51.520Z,17.36
2018-07-19T00:29:56.231Z,17.36
2018-07-19T00:30:59.361Z,17.36
2018-07-19T00:32:02.378Z,17.11
2018-07-19T00:33:05.338Z,16.92
2018-07-19T00:34:08.464Z,16.74
2018-07-19T00:35:11.370Z,16.63
2018-07-19T00:36:15.539Z,16.74
2018-07-19T00:37:19.423Z,16.78
2018-07-19T00:38:22.582Z,16.88
2018-07-19T00:39:25.578Z,16.87
2018-07-19T00:40:32.943Z,16.93
2018-07-19T00:41:37.002Z,16.82
2018-07-19T00:42:40.507Z,16.75
2018-07-19T00:43:43.550Z,16.69
2018-07-19T00:44:46.689Z,16.60
2018-07-19T00:45:50.545Z,16.48
2018-07-19T00:46:54.883Z,16.45
2018-07-19T00:47:59.280Z,16.57
2018-07-19T00:49:03.328Z,16.74
2018-07-19T00:50:06.401Z,16.97
2018-07-19T00:51:09.489Z,17.07
2018-07-19T00:52:15.528Z,17.08
2018-07-19T00:53:19.489Z,16.86
2018-07-19T00:54:24.878Z,16.56
2018-07-19T00:55:29.423Z,16.27
2018-07-19T00:56:39.327Z,16.13
2018-07-19T00:57:47.526Z,16.01
2018-07-19T00:58:53.748Z,16.03
2018-07-19T00:59:58.403Z,16.29
2018-07-19T01:01:01.540Z,16.10
2018-07-19T01:02:05.359Z,16.16
2018-07-19T01:03:09.362Z,16.19
2018-07-19T01:04:13.218Z,16.19
2018-07-19T01:05:16.162Z,16.37
2018-07-19T01:06:19.123Z,16.48
2018-07-19T01:08:47.954Z,16.72
2018-07-19T01:22:53.817Z,16.83
2018-07-19T01:23:57.402Z,16.20
2018-07-19T01:25:00.934Z,16.31
2018-07-19T01:26:04.510Z,16.22
2018-07-19T01:27:07.590Z,16.24
2018-07-19T01:28:10.525Z,16.25
2018-07-19T01:29:14.225Z,16.26
2018-07-19T01:30:17.243Z,16.28
2018-07-19T01:31:20.303Z,16.33
2018-07-19T01:32:23.286Z,16.36
2018-07-19T01:33:26.242Z,16.34
2018-07-19T01:34:29.189Z,16.45
2018-07-19T01:35:34.561Z,16.66
2018-07-19T01:36:37.467Z,16.62
2018-07-19T01:37:41.447Z,16.08
2018-07-19T01:38:44.365Z,15.93
2018-07-19T01:39:47.275Z,16.00
2018-07-19T01:40:50.308Z,16.16
2018-07-19T01:41:54.289Z,16.19
2018-07-19T01:42:57.471Z,16.25
2018-07-19T01:44:00.338Z,16.41
2018-07-19T01:45:04.711Z,16.44
2018-07-19T01:46:07.988Z,16.41
2018-07-19T01:47:12.904Z,16.25
2018-07-19T01:48:17.577Z,16.28
2018-07-19T01:49:20.527Z,16.26
2018-07-19T01:50:23.479Z,16.30
2018-07-19T01:51:26.376Z,16.27
2018-07-19T01:52:29.415Z,16.31
2018-07-19T01:53:34.291Z,16.18
2018-07-19T01:54:39.673Z,15.88
2018-07-19T01:55:52.017Z,15.54
2018-07-19T01:56:55.879Z,15.65
2018-07-19T01:57:58.922Z,15.87
2018-07-19T01:59:01.968Z,15.96
2018-07-19T02:00:05.997Z,16.00
2018-07-19T02:01:09.393Z,15.83
2018-07-19T02:02:12.795Z,15.86
2018-07-19T02:03:16.277Z,15.98
2018-07-19T02:04:19.546Z,16.08
2018-07-19T02:05:29.600Z,16.03
2018-07-19T02:06:35.587Z,15.82
2018-07-19T02:07:39.928Z,15.94
2018-07-19T02:08:42.796Z,15.91
2018-07-19T02:09:45.767Z,15.91
2018-07-19T02:10:49.913Z,16.00
2018-07-19T02:11:55.930Z,15.94
2018-07-19T02:12:59.312Z,15.99
2018-07-19T02:14:02.701Z,15.95
2018-07-19T02:15:07.145Z,15.86
2018-07-19T02:16:10.318Z,15.77
2018-07-19T02:17:14.091Z,15.69
2018-07-19T02:18:17.809Z,15.77
2018-07-19T02:19:21.395Z,15.68
2018-07-19T02:20:24.824Z,15.71
2018-07-19T02:21:28.936Z,15.79
2018-07-19T02:22:31.937Z,15.68
2018-07-19T02:23:34.938Z,15.68
2018-07-19T02:24:37.987Z,15.66
2018-07-19T02:25:41.200Z,15.87
2018-07-19T02:26:47.588Z,15.85
2018-07-19T02:27:51.797Z,15.74
2018-07-19T02:29:00.257Z,15.68
2018-07-19T02:30:03.423Z,15.88
2018-07-19T02:31:09.948Z,15.94
2018-07-19T02:32:14.823Z,16.01
2018-07-19T02:33:17.852Z,15.89
2018-07-19T02:34:21.864Z,15.69
2018-07-19T02:35:25.009Z,15.73
2018-07-19T02:36:28.555Z,15.67
2018-07-19T02:37:31.687Z,15.71
2018-07-19T02:38:35.482Z,15.76
2018-07-19T02:39:40.104Z,15.80
2018-07-19T02:40:43.611Z,15.76
2018-07-19T02:41:46.947Z,15.85
2018-07-19T02:42:50.856Z,15.86
2018-07-19T02:43:54.268Z,15.79
2018-07-19T02:44:57.935Z,15.85
2018-07-19T02:46:02.487Z,15.95
2018-07-19T02:47:06.190Z,15.96
2018-07-19T02:48:09.932Z,15.84
2018-07-19T02:49:13.108Z,15.77
2018-07-19T02:50:17.339Z,15.62
2018-07-19T02:51:20.700Z,15.38
2018-07-19T02:52:23.622Z,15.28
2018-07-19T02:53:26.531Z,15.34
2018-07-19T02:54:29.455Z,15.27
2018-07-19T02:55:32.454Z,15.28
2018-07-19T02:56:35.380Z,15.39
2018-07-19T02:57:38.292Z,15.41
2018-07-19T02:58:42.092Z,15.48
2018-07-19T02:59:44.980Z,15.55
2018-07-19T03:00:48.518Z,15.53
2018-07-19T03:01:51.489Z,15.33
2018-07-19T03:02:54.386Z,15.28
2018-07-19T03:03:58.366Z,15.39
2018-07-19T03:05:01.212Z,15.32
2018-07-19T03:06:07.116Z,15.31
2018-07-19T03:07:10.052Z,15.32
2018-07-19T03:08:12.965Z,15.43
2018-07-19T03:09:15.873Z,15.59
2018-07-19T03:10:19.251Z,15.60
2018-07-19T03:11:23.157Z,15.48
2018-07-19T03:12:26.083Z,15.48
2018-07-19T03:13:29.481Z,15.43
2018-07-19T03:14:32.375Z,15.31
2018-07-19T03:15:36.568Z,15.13
2018-07-19T03:16:41.562Z,15.14
2018-07-19T03:17:44.572Z,15.13
2018-07-19T03:18:47.485Z,15.01
2018-07-19T03:19:50.998Z,15.01
2018-07-19T03:20:53.906Z,14.99
2018-07-19T03:21:56.938Z,15.01
2018-07-19T03:23:00.876Z,14.91
2018-07-19T03:24:05.015Z,14.99
2018-07-19T03:25:09.567Z,15.11
2018-07-19T03:26:13.693Z,15.04
2018-07-19T03:27:16.640Z,15.10
2018-07-19T03:28:19.646Z,15.09
2018-07-19T03:29:26.054Z,15.14
2018-07-19T03:30:28.989Z,15.27
2018-07-19T03:31:32.723Z,15.26
2018-07-19T03:32:35.605Z,15.30
2018-07-19T03:33:38.618Z,15.29
2018-07-19T03:34:41.886Z,15.33
2018-07-19T03:35:45.179Z,15.28
2018-07-19T03:36:48.686Z,15.21
2018-07-19T03:37:52.318Z,15.16
2018-07-19T03:38:55.347Z,15.13
2018-07-19T03:39:58.240Z,15.04
2018-07-19T03:41:01.218Z,14.97
2018-07-19T03:42:06.098Z,14.89
2018-07-19T03:43:10.265Z,14.94
2018-07-19T03:44:13.743Z,14.84
2018-07-19T03:45:16.843Z,14.88
2018-07-19T03:46:20.078Z,14.96
2018-07-19T03:47:23.013Z,15.02
2018-07-19T03:48:26.759Z,14.90
2018-07-19T03:49:31.066Z,14.93
2018-07-19T03:50:34.022Z,15.01
2018-07-19T03:51:36.948Z,14.91
2018-07-19T03:52:39.938Z,14.85
2018-07-19T03:53:42.885Z,14.89
2018-07-19T03:54:45.781Z,14.91
2018-07-19T03:55:50.503Z,14.86
2018-07-19T03:56:53.434Z,14.84
2018-07-19T03:57:56.356Z,15.09
2018-07-19T03:58:59.334Z,15.25
2018-07-19T04:00:03.574Z,15.17
2018-07-19T04:01:06.541Z,15.05
2018-07-19T04:02:10.563Z,15.05
2018-07-19T04:03:13.512Z,15.11
2018-07-19T04:04:16.570Z,15.12
2018-07-19T04:05:19.466Z,15.03
2018-07-19T04:06:22.853Z,15.08
2018-07-19T04:07:27.382Z,15.14
2018-07-19T04:08:30.395Z,15.17
2018-07-19T04:09:33.322Z,15.14
2018-07-19T04:10:39.773Z,15.12
2018-07-19T04:11:46.909Z,15.12
2018-07-19T04:12:50.614Z,15.12
2018-07-19T04:13:53.561Z,15.16
2018-07-19T04:14:56.617Z,14.84
2018-07-19T04:16:00.504Z,14.71
2018-07-19T04:17:03.579Z,14.64
2018-07-19T04:18:06.711Z,14.71
2018-07-19T04:19:10.484Z,14.72
2018-07-19T04:20:14.355Z,14.62
2018-07-19T04:21:19.935Z,14.55
2018-07-19T04:22:22.909Z,14.53
2018-07-19T04:23:25.843Z,14.33
2018-07-19T04:24:28.897Z,14.44
2018-07-19T04:25:33.751Z,14.51
2018-07-19T04:26:36.687Z,14.55
2018-07-19T04:27:39.558Z,14.63
2018-07-19T04:28:42.471Z,14.57
2018-07-19T04:29:45.494Z,14.39
2018-07-19T04:30:48.451Z,14.42
2018-07-19T04:31:53.131Z,14.48
2018-07-19T04:32:56.004Z,14.35
2018-07-19T04:33:59.008Z,14.15
2018-07-19T04:35:03.260Z,14.18
2018-07-19T04:36:06.241Z,14.24
2018-07-19T04:37:10.097Z,14.21
2018-07-19T04:38:13.639Z,14.37
2018-07-19T04:39:18.735Z,14.40
2018-07-19T04:40:21.994Z,14.44
2018-07-19T04:41:29.544Z,14.48
2018-07-19T04:42:40.051Z,14.28
2018-07-19T04:46:25.516Z,14.43
2018-07-19T04:58:27.089Z,14.88
2018-07-19T04:59:33.473Z,15.07
2018-07-19T05:00:36.710Z,15.21
2018-07-19T05:01:40.883Z,15.28
2018-07-19T05:02:47.970Z,15.30
2018-07-19T05:03:51.024Z,15.31
2018-07-19T05:05:05.215Z,15.23
2018-07-19T05:07:21.542Z,15.31
2018-07-19T05:08:24.875Z,15.43
2018-07-19T05:09:38.969Z,15.33
2018-07-19T05:10:42.674Z,15.25
2018-07-19T05:14:13.947Z,15.47
2018-07-19T05:20:11.016Z,15.53
2018-07-19T05:21:14.169Z,15.56
2018-07-19T05:22:17.132Z,15.49
2018-07-19T05:24:35.536Z,15.27
2018-07-19T05:26:54.536Z,15.21
2018-07-19T09:14:10.991Z,24.95
2018-07-19T09:15:15.539Z,25.40
2018-07-19T09:16:19.511Z,24.88
2018-07-19T09:17:23.279Z,24.10
2018-07-19T09:18:27.992Z,23.63
2018-07-19T09:19:31.641Z,23.53
2018-07-19T09:20:35.689Z,23.18
2018-07-19T09:21:38.692Z,23.06
2018-07-19T09:22:42.917Z,23.09
2018-07-19T09:23:47.280Z,23.14
2018-07-19T09:24:53.330Z,23.46
2018-07-19T09:25:56.740Z,24.17
2018-07-19T09:27:01.975Z,24.84
2018-07-19T09:28:07.612Z,25.45
2018-07-19T09:29:12.062Z,25.84
2018-07-19T09:30:15.707Z,26.03
2018-07-19T09:31:21.616Z,26.16
2018-07-19T09:32:25.173Z,26.30
2018-07-19T09:33:38.644Z,26.22
2018-07-19T09:34:41.732Z,26.21
2018-07-19T09:35:48.721Z,25.77
2018-07-19T09:36:55.918Z,25.46
2018-07-19T09:38:01.981Z,25.37
2018-07-19T09:39:06.447Z,25.56
2018-07-19T09:40:11.303Z,25.62
2018-07-19T09:41:15.542Z,25.60
2018-07-19T09:42:27.601Z,25.87
2018-07-19T09:43:32.183Z,26.42
2018-07-19T09:44:35.466Z,26.98
2018-07-19T09:48:11.349Z,27.87
2018-07-19T09:49:46.347Z,27.54
2018-07-19T09:59:24.212Z,25.84
2018-07-19T10:00:32.698Z,25.66
2018-07-19T10:01:37.602Z,25.46
2018-07-19T10:02:42.292Z,25.53
2018-07-19T10:03:45.235Z,25.41
2018-07-19T10:05:06.656Z,25.33
2018-07-19T10:06:10.509Z,25.53
2018-07-19T10:07:14.523Z,25.48
2018-07-19T10:08:19.104Z,25.40
2018-07-19T10:10:31.535Z,25.62
2018-07-19T10:11:37.351Z,25.47
2018-07-19T10:12:41.566Z,25.35
2018-07-19T10:13:45.712Z,25.27
2018-07-19T10:14:49.606Z,25.53
2018-07-19T10:15:52.732Z,25.94
2018-07-19T10:16:56.907Z,26.40
2018-07-19T10:18:00.314Z,25.99
2018-07-19T10:19:05.275Z,25.52
2018-07-19T10:20:10.289Z,25.24
2018-07-19T10:21:14.942Z,24.93
2018-07-19T10:22:20.522Z,24.99
2018-07-19T10:23:23.551Z,25.51
2018-07-19T10:24:26.909Z,25.71
2018-07-19T10:25:29.855Z,26.04
2018-07-19T10:26:33.510Z,26.25
2018-07-19T10:27:36.758Z,25.81
2018-07-19T10:28:39.710Z,26.03
2018-07-19T10:29:43.928Z,25.91
2018-07-19T10:30:48.551Z,26.12
2018-07-19T10:31:54.188Z,26.07
2018-07-19T10:33:02.879Z,25.89
2018-07-19T10:34:05.912Z,25.74
2018-07-19T10:35:08.860Z,25.71
2018-07-19T10:36:11.880Z,25.59
2018-07-19T10:37:15.282Z,25.84
2018-07-19T10:38:18.275Z,25.95
2018-07-19T10:39:21.898Z,25.89
2018-07-19T10:40:24.869Z,26.09
2018-07-19T10:41:28.798Z,26.17
2018-07-19T10:42:32.140Z,25.77
2018-07-19T10:43:35.655Z,25.63
2018-07-19T10:44:41.727Z,25.83
2018-07-19T10:45:44.708Z,26.05
2018-07-19T10:46:49.987Z,26.37
2018-07-19T10:47:53.511Z,26.77
2018-07-19T10:48:56.906Z,27.39
2018-07-19T10:50:00.667Z,25.83
2018-07-19T10:51:04.563Z,25.55
2018-07-19T10:52:07.538Z,25.89
2018-07-19T10:53:10.488Z,26.04
2018-07-19T10:54:13.425Z,26.00
2018-07-19T10:56:31.626Z,25.87
2018-07-19T10:57:34.543Z,25.16
2018-07-19T11:00:03.240Z,25.35
2018-07-19T11:01:08.053Z,25.40
2018-07-19T11:02:15.567Z,25.53
2018-07-19T11:03:21.323Z,25.86
2018-07-19T11:04:24.878Z,26.09
2018-07-19T11:05:32.701Z,25.55
2018-07-19T11:06:35.859Z,25.70
2018-07-19T11:07:38.832Z,26.43
2018-07-19T11:08:44.439Z,26.97
2018-07-19T11:10:22.230Z,26.92
2018-07-19T11:13:01.366Z,27.46
2018-07-19T11:14:09.298Z,27.63
2018-07-19T11:15:15.285Z,27.75
2018-07-19T11:16:21.299Z,27.87
2018-07-19T11:17:29.155Z,27.94
2018-07-19T11:18:32.309Z,28.03
2018-07-19T11:19:36.204Z,28.23
2018-07-19T11:20:44.902Z,28.21
2018-07-19T11:21:48.814Z,28.16
2018-07-19T11:24:33.553Z,27.83
2018-07-19T11:25:41.280Z,27.48
2018-07-19T11:26:49.313Z,27.46
2018-07-19T11:27:55.563Z,27.73
2018-07-19T11:29:01.451Z,28.02
2018-07-19T11:35:26.041Z,28.04
2018-07-19T11:37:45.465Z,27.34
2018-07-19T11:39:10.210Z,27.47
2018-07-19T11:40:18.789Z,27.65
2018-07-19T11:41:26.281Z,27.15
2018-07-19T11:42:37.491Z,27.13
2018-07-19T11:43:46.698Z,27.11
2018-07-19T11:44:59.594Z,27.16
2018-07-19T11:46:10.008Z,27.33
2018-07-19T11:47:25.421Z,26.33
2018-07-19T11:48:33.842Z,26.73
2018-07-19T11:49:40.702Z,26.91
2018-07-19T11:50:47.715Z,27.28
2018-07-19T11:53:07.349Z,27.06
2018-07-19T11:54:11.633Z,27.24
2018-07-19T11:56:40.688Z,27.42
2018-07-19T11:57:46.221Z,27.99
2018-07-19T11:58:53.525Z,28.28
2018-07-19T11:59:57.053Z,28.52
2018-07-19T12:01:02.084Z,28.61
2018-07-19T12:03:24.241Z,28.59
2018-07-19T12:04:36.358Z,28.78
2018-07-19T12:05:41.903Z,28.74
2018-07-19T12:06:49.860Z,28.85
2018-07-19T12:08:04.469Z,28.74
2018-07-19T12:09:09.691Z,28.97
2018-07-19T12:10:17.922Z,28.90
2018-07-19T12:11:24.998Z,28.82
2018-07-19T12:12:31.739Z,28.94
2018-07-19T12:13:35.772Z,29.29
2018-07-19T12:14:41.218Z,29.25
2018-07-19T12:15:45.147Z,29.18
2018-07-19T12:17:01.606Z,29.01
2018-07-19T12:18:14.284Z,29.19
2018-07-19T12:19:18.102Z,29.23
2018-07-19T12:20:21.586Z,29.12
2018-07-19T12:21:33.632Z,29.23
2018-07-19T12:22:41.777Z,29.22
2018-07-19T12:23:49.488Z,29.21
2018-07-19T12:26:12.390Z,29.52
2018-07-19T12:27:22.770Z,29.76
2018-07-19T12:28:26.159Z,29.40
2018-07-19T12:29:32.050Z,28.98
2018-07-19T12:30:55.369Z,28.81
2018-07-19T12:32:08.475Z,28.61
2018-07-19T12:33:14.184Z,28.52
2018-07-19T12:34:17.279Z,27.99
2018-07-19T12:35:22.470Z,28.02
2018-07-19T12:36:26.390Z,28.13
2018-07-19T12:37:33.497Z,28.30
2018-07-19T12:38:39.491Z,28.74
2018-07-19T12:39:42.837Z,29.00
2018-07-19T12:40:48.794Z,29.07
2018-07-19T12:41:51.773Z,29.53
2018-07-19T12:42:57.803Z,29.84
2018-07-19T12:44:02.525Z,29.86
2018-07-19T12:45:08.669Z,29.69
2018-07-19T12:46:15.725Z,29.51
2018-07-19T12:47:18.757Z,29.31
2018-07-19T12:48:22.122Z,29.18
2018-07-19T12:49:27.098Z,28.53
2018-07-19T12:50:32.695Z,28.14
2018-07-19T12:51:36.831Z,27.88
2018-07-19T12:52:40.915Z,28.31
2018-07-19T12:53:43.863Z,28.72
2018-07-19T12:54:47.836Z,29.10
2018-07-19T12:55:52.889Z,29.27
2018-07-19T12:56:56.739Z,29.04
2018-07-19T12:58:00.528Z,28.74
2018-07-19T12:59:09.186Z,28.54
2018-07-19T13:00:13.238Z,28.43
2018-07-19T13:01:16.354Z,28.36
2018-07-19T13:02:19.296Z,28.25
2018-07-19T13:03:23.025Z,28.19
2018-07-19T13:04:26.306Z,27.97
2018-07-19T13:05:29.234Z,27.65
2018-07-19T13:06:37.864Z,27.53
2018-07-19T13:07:48.520Z,27.38
2018-07-19T13:08:51.919Z,27.25
2018-07-19T13:09:56.800Z,26.73
2018-07-19T13:11:01.102Z,26.57
2018-07-19T13:12:05.293Z,26.35
2018-07-19T13:13:09.807Z,26.48
2018-07-19T13:14:13.832Z,26.56
2018-07-19T13:15:17.859Z,26.51
2018-07-19T13:16:22.750Z,26.59
2018-07-19T13:17:27.892Z,26.82
2018-07-19T13:18:32.369Z,27.15
2018-07-19T13:19:37.312Z,27.40
2018-07-19T13:20:41.148Z,27.70
2018-07-19T13:21:45.288Z,27.88
2018-07-19T13:22:48.287Z,28.02
2018-07-19T13:23:51.513Z,28.05
2018-07-19T13:24:57.878Z,28.11
2018-07-19T13:26:07.248Z,28.08
2018-07-19T13:28:45.619Z,28.02
2018-07-19T13:29:48.682Z,27.80
2018-07-19T13:30:54.888Z,27.76
2018-07-19T13:31:58.736Z,27.72
2018-07-19T13:33:01.721Z,27.63
2018-07-19T13:34:06.637Z,27.55
2018-07-19T13:35:10.002Z,27.62
2018-07-19T13:36:13.430Z,27.75
2018-07-19T13:37:16.634Z,27.89
2018-07-19T13:38:21.334Z,27.92
2018-07-19T13:39:25.121Z,27.93
2018-07-19T13:40:29.546Z,27.91
2018-07-19T13:41:32.705Z,27.86
2018-07-19T13:42:37.197Z,27.84
2018-07-19T13:43:40.156Z,27.86
2018-07-19T13:44:43.167Z,27.94
2018-07-19T13:45:47.296Z,28.13
2018-07-19T13:46:51.671Z,28.02
2018-07-19T13:47:54.929Z,27.78
2018-07-19T13:48:57.919Z,27.83
2018-07-19T13:50:02.521Z,27.64
2018-07-19T13:51:07.125Z,27.54
2018-07-19T13:53:24.582Z,27.72
2018-07-19T13:54:27.766Z,27.59
2018-07-19T13:55:30.796Z,27.45
2018-07-19T13:56:33.825Z,27.50
2018-07-19T13:57:36.809Z,27.45
2018-07-19T13:58:41.286Z,27.40
2018-07-19T13:59:48.897Z,27.49
2018-07-19T14:00:54.227Z,27.51
2018-07-19T14:01:59.754Z,27.47
2018-07-19T14:03:06.912Z,27.52
2018-07-19T14:04:10.740Z,27.50
2018-07-19T14:05:13.785Z,27.58
2018-07-19T14:06:18.995Z,27.71
2018-07-19T14:07:23.075Z,27.93
2018-07-19T14:08:26.541Z,27.99
2018-07-19T14:09:29.785Z,27.89
2018-07-19T14:10:34.326Z,27.94
2018-07-19T14:11:38.383Z,27.92
2018-07-19T14:12:47.710Z,27.85
2018-07-19T14:13:52.824Z,27.65
2018-07-19T14:14:55.754Z,27.67
2018-07-19T14:16:08.101Z,27.41
2018-07-19T14:17:11.325Z,27.39
2018-07-19T14:18:14.535Z,27.24
2018-07-19T14:19:21.183Z,27.47
2018-07-19T23:30:11.332Z,19.16
2018-07-19T23:31:15.346Z,18.85
2018-07-19T23:32:18.952Z,18.78
2018-07-19T23:33:21.969Z,18.85
2018-07-19T23:34:25.108Z,18.77
2018-07-19T23:35:33.168Z,18.81
2018-07-19T23:36:43.089Z,18.69
2018-07-19T23:37:49.138Z,18.76
2018-07-19T23:38:56.238Z,18.71
2018-07-19T23:40:09.763Z,18.34
2018-07-19T23:41:17.596Z,18.20
2018-07-19T23:42:26.408Z,18.15
2018-07-19T23:43:32.682Z,18.13
2018-07-19T23:44:42.972Z,18.22
2018-07-19T23:46:48.694Z,18.30
2018-07-19T23:47:51.878Z,18.41
2018-07-19T23:48:56.692Z,18.18
2018-07-19T23:49:59.941Z,18.12
2018-07-19T23:51:02.955Z,18.05
2018-07-19T23:52:05.816Z,17.99
2018-07-19T23:53:08.788Z,18.12
2018-07-19T23:54:11.636Z,18.26
2018-07-19T23:55:15.002Z,18.17
2018-07-19T23:56:19.343Z,18.31
2018-07-19T23:57:23.187Z,18.43
2018-07-19T23:58:26.041Z,18.50
2018-07-19T23:59:29.017Z,18.40
